Time;durP1;ratioP1;P1;durP2;ratioP2;P2;SDS_P1;SDS_P2;PMS_P1;PMS_P2;Temp;Humidity;BMP_temperature;BMP_pressure;BME280_temperature;BME280_humidity;BME280_pressure;Samples;Min_cycle;Max_cycle;Signal;HPM_P1;HPM_P2
2023/03/19 00:00:14;;;;;;;;;3.75;3.75;;;;;-147.17;100.00;-15917.19;5029681;28;51723;-47
2023/03/19 00:02:40;;;;;;;;;4.75;4.50;;;;;-147.17;100.00;-15917.19;5011801;28;50949;-46
2023/03/19 00:05:05;;;;;;;;;4.00;3.75;;;;;-147.17;100.00;-15917.19;5032790;28;51227;-50
2023/03/19 00:07:31;;;;;;;;;4.00;4.00;;;;;-147.17;100.00;-15917.19;5028785;28;52132;-48
2023/03/19 00:09:56;;;;;;;;;4.00;4.00;;;;;-147.17;100.00;-15917.19;5036662;28;51987;-50
2023/03/19 00:12:22;;;;;;;;;4.00;4.00;;;;;-147.17;100.00;-15917.19;5026275;28;51395;-46
2023/03/19 00:14:47;;;;;;;;;6.00;5.00;;;;;-147.17;100.00;-15917.19;5028330;28;51094;-47
2023/03/19 00:17:12;;;;;;;;;5.00;4.25;;;;;-147.17;100.00;-15917.19;5028645;28;51573;-50
2023/03/19 00:19:38;;;;;;;;;3.67;3.67;;;;;-147.17;100.00;-15917.19;5029500;28;51950;-48
2023/03/19 00:22:03;;;;;;;;;4.00;4.00;;;;;-147.17;100.00;-15917.19;5029511;28;51160;-49
2023/03/19 00:24:29;;;;;;;;;4.00;4.00;;;;;-147.17;100.00;-15917.19;5028197;28;51360;-50
2023/03/19 00:26:54;;;;;;;;;5.50;4.00;;;;;-147.17;100.00;-15917.19;5032134;28;51018;-49
2023/03/19 00:29:21;;;;;;;;;3.00;3.00;;;;;-147.17;100.00;-15917.19;5028376;28;51832;-49
2023/03/19 00:31:47;;;;;;;;;4.75;4.75;;;;;-147.17;100.00;-15917.19;5031460;28;51035;-50
2023/03/19 00:34:12;;;;;;;;;4.33;4.33;;;;;-147.17;100.00;-15917.19;5026841;28;51148;-46
2023/03/19 00:36:38;;;;;;;;;3.75;3.75;;;;;-147.17;100.00;-15917.19;5031980;28;51695;-49
2023/03/19 00:39:04;;;;;;;;;4.00;4.00;;;;;-147.17;100.00;-15917.19;5032231;28;51051;-48
2023/03/19 00:41:30;;;;;;;;;3.50;3.50;;;;;-147.17;100.00;-15917.19;5019845;28;51144;-47
2023/03/19 00:43:56;;;;;;;;;3.67;3.67;;;;;-147.17;100.00;-15917.19;5012555;28;52794;-48
2023/03/19 00:46:23;;;;;;;;;6.75;6.00;;;;;-147.17;100.00;-15917.19;5028308;28;50971;-48
2023/03/19 00:48:49;;;;;;;;;3.00;3.00;;;;;-147.17;100.00;-15917.19;5022293;28;52044;-48
2023/03/19 00:51:15;;;;;;;;;3.00;3.00;;;;;-147.17;100.00;-15917.19;5035044;28;51142;-49
2023/03/19 00:53:42;;;;;;;;;3.00;3.00;;;;;-147.17;100.00;-15917.19;5013539;28;51256;-47
2023/03/19 00:56:10;;;;;;;;;3.00;3.00;;;;;-147.17;100.00;-15917.19;5027916;28;51345;-48
2023/03/19 00:58:37;;;;;;;;;3.75;3.00;;;;;-147.17;100.00;-15917.19;5012076;28;53195;-48
2023/03/19 01:01:03;;;;;;;;;3.75;3.75;;;;;-147.17;100.00;-15917.19;5042510;28;51035;-48
2023/03/19 01:03:28;;;;;;;;;4.00;3.00;;;;;-147.17;100.00;-15917.19;5028127;28;51173;-50
2023/03/19 01:05:54;;;;;;;;;5.00;4.50;;;;;-147.17;100.00;-15917.19;5029996;28;51333;-46
2023/03/19 01:08:19;;;;;;;;;5.00;4.25;;;;;-147.17;100.00;-15917.19;5036994;28;51959;-47
2023/03/19 01:10:45;;;;;;;;;4.00;4.00;;;;;-147.17;100.00;-15917.19;5014116;28;51136;-48
2023/03/19 01:13:11;;;;;;;;;3.75;3.25;;;;;-147.17;100.00;-15917.19;5031417;28;51212;-49
2023/03/19 01:15:38;;;;;;;;;3.50;3.00;;;;;-147.17;100.00;-15917.19;5009576;28;51112;-47
2023/03/19 01:18:03;;;;;;;;;4.50;4.00;;;;;-147.17;100.00;-15917.19;5031987;28;51365;-46
2023/03/19 01:20:29;;;;;;;;;4.50;4.00;;;;;-147.17;100.00;-15917.19;5023338;28;51101;-46
2023/03/19 01:22:54;;;;;;;;;4.00;4.00;;;;;-147.17;100.00;-15917.19;5011477;28;51137;-47
2023/03/19 01:25:20;;;;;;;;;3.00;2.00;;;;;-147.17;100.00;-15917.19;5027583;28;51234;-47
2023/03/19 01:27:45;;;;;;;;;3.00;3.00;;;;;-147.17;100.00;-15917.19;5018023;28;52173;-48
2023/03/19 01:30:11;;;;;;;;;5.25;5.25;;;;;-147.17;100.00;-15917.19;5031571;28;51106;-47
2023/03/19 01:32:36;;;;;;;;;3.00;3.00;;;;;-147.17;100.00;-15917.19;5028101;28;50945;-48
2023/03/19 01:35:01;;;;;;;;;4.50;4.00;;;;;-147.17;100.00;-15917.19;5025705;28;51158;-49
2023/03/19 01:37:28;;;;;;;;;4.75;4.75;;;;;-147.17;100.00;-15917.19;4979680;28;52776;-48
2023/03/19 01:39:53;;;;;;;;;2.00;2.00;;;;;-147.17;100.00;-15917.19;5035466;28;51115;-48
2023/03/19 01:42:18;;;;;;;;;4.00;3.67;;;;;-147.17;100.00;-15917.19;5028286;28;51242;-48
2023/03/19 01:44:44;;;;;;;;;4.00;4.00;;;;;-147.17;100.00;-15917.19;5025538;28;51209;-49
2023/03/19 01:47:34;;;;;;;;;4.00;4.00;;;;;-147.17;100.00;-15917.19;5028386;28;51884;-47
2023/03/19 01:50:00;;;;;;;;;5.67;5.00;;;;;-147.17;100.00;-15917.19;5003085;28;51065;-48
2023/03/19 01:52:30;;;;;;;;;2.67;2.67;;;;;-147.17;100.00;-15917.19;5030996;28;51109;-50
2023/03/19 01:54:58;;;;;;;;;5.00;4.25;;;;;-147.17;100.00;-15917.19;5031110;28;51141;-49
2023/03/19 01:57:25;;;;;;;;;4.33;4.00;;;;;-147.17;100.00;-15917.19;5030535;28;52482;-47
2023/03/19 01:59:53;;;;;;;;;5.00;4.75;;;;;-147.17;100.00;-15917.19;5031785;28;50999;-48
2023/03/19 02:02:33;;;;;;;;;4.00;4.00;;;;;-147.17;100.00;-15917.19;5014846;28;51052;-48
2023/03/19 02:05:14;;;;;;;;;4.33;3.67;;;;;-147.17;100.00;-15917.19;5018082;28;51268;-46
2023/03/19 02:07:43;;;;;;;;;5.25;5.00;;;;;-147.17;100.00;-15917.19;5032572;28;52067;-49
2023/03/19 02:10:12;;;;;;;;;5.00;4.00;;;;;-147.17;100.00;-15917.19;5030993;28;51176;-50
2023/03/19 02:12:37;;;;;;;;;6.00;5.00;;;;;-147.17;100.00;-15917.19;5030958;28;51132;-49
2023/03/19 02:15:04;;;;;;;;;3.00;3.00;;;;;-147.17;100.00;-15917.19;5033396;28;51401;-50
2023/03/19 02:17:31;;;;;;;;;4.00;4.00;;;;;-147.17;100.00;-15917.19;5029993;28;51223;-48
2023/03/19 02:20:04;;;;;;;;;5.50;4.75;;;;;-147.17;100.00;-15917.19;5027158;28;51179;-48
2023/03/19 02:22:31;;;;;;;;;5.00;4.67;;;;;-147.17;100.00;-15917.19;5033151;28;51224;-50
2023/03/19 02:25:06;;;;;;;;;3.00;3.00;;;;;-147.17;100.00;-15917.19;5031526;28;51311;-48
2023/03/19 02:27:31;;;;;;;;;3.67;3.00;;;;;-147.17;100.00;-15917.19;5013510;28;51264;-50
2023/03/19 02:29:57;;;;;;;;;5.00;5.00;;;;;-147.17;100.00;-15917.19;5031319;28;51435;-49
2023/03/19 02:32:22;;;;;;;;;4.75;4.00;;;;;-147.17;100.00;-15917.19;5034866;28;51180;-48
2023/03/19 02:34:47;;;;;;;;;4.00;4.00;;;;;-147.17;100.00;-15917.19;5008191;28;51361;-47
2023/03/19 02:37:23;;;;;;;;;6.00;6.00;;;;;-147.17;100.00;-15917.19;5031921;28;51002;-49
2023/03/19 02:39:58;;;;;;;;;6.33;4.67;;;;;-147.17;100.00;-15917.19;5031792;28;51221;-48
2023/03/19 02:42:27;;;;;;;;;5.75;5.00;;;;;-147.17;100.00;-15917.19;5031021;28;51179;-48
2023/03/19 02:44:53;;;;;;;;;4.50;4.00;;;;;-147.17;100.00;-15917.19;5030521;28;51238;-46
2023/03/19 02:47:18;;;;;;;;;7.25;7.25;;;;;-147.17;100.00;-15917.19;5032960;28;51215;-48
2023/03/19 02:49:43;;;;;;;;;4.00;4.00;;;;;-147.17;100.00;-15917.19;5026658;28;51242;-51
2023/03/19 02:52:11;;;;;;;;;3.00;3.00;;;;;-147.17;100.00;-15917.19;5031972;28;51156;-48
2023/03/19 02:54:36;;;;;;;;;3.00;3.00;;;;;-147.17;100.00;-15917.19;5031114;28;51223;-47
2023/03/19 02:57:01;;;;;;;;;5.00;5.00;;;;;-147.17;100.00;-15917.19;5030626;28;52300;-48
2023/03/19 02:59:27;;;;;;;;;3.00;2.25;;;;;-147.17;100.00;-15917.19;5040186;28;51152;-50
2023/03/19 03:01:52;;;;;;;;;4.00;4.00;;;;;-147.17;100.00;-15917.19;5031096;28;51259;-48
2023/03/19 03:04:17;;;;;;;;;7.00;5.00;;;;;-147.17;100.00;-15917.19;5030306;28;51911;-47
2023/03/19 03:06:43;;;;;;;;;6.00;6.00;;;;;-147.17;100.00;-15917.19;5014347;28;53175;-51
2023/03/19 03:09:11;;;;;;;;;6.00;5.50;;;;;-147.17;100.00;-15917.19;5033504;28;51184;-47
2023/03/19 03:11:37;;;;;;;;;6.25;5.75;;;;;-147.17;100.00;-15917.19;5012127;28;51398;-47
2023/03/19 03:14:02;;;;;;;;;4.00;4.00;;;;;-147.17;100.00;-15917.19;5032550;28;53120;-49
2023/03/19 03:16:28;;;;;;;;;5.00;4.50;;;;;-147.17;100.00;-15917.19;5033037;28;52399;-51
2023/03/19 03:18:53;;;;;;;;;5.00;5.00;;;;;-147.17;100.00;-15917.19;5033281;28;51141;-48
2023/03/19 03:21:20;;;;;;;;;4.00;4.00;;;;;-147.17;100.00;-15917.19;5011818;28;51023;-51
2023/03/19 03:23:46;;;;;;;;;6.00;4.00;;;;;-147.17;100.00;-15917.19;5033488;28;51025;-50
2023/03/19 03:26:11;;;;;;;;;4.00;4.00;;;;;-147.17;100.00;-15917.19;5036556;28;51216;-48
2023/03/19 03:28:37;;;;;;;;;5.00;5.00;;;;;-147.17;100.00;-15917.19;5028815;28;51209;-49
2023/03/19 03:31:02;;;;;;;;;3.50;3.50;;;;;-147.17;100.00;-15917.19;5030342;28;51539;-47
2023/03/19 03:33:28;;;;;;;;;4.75;4.75;;;;;-147.17;100.00;-15917.19;5027760;28;51524;-47
2023/03/19 03:35:53;;;;;;;;;4.00;4.00;;;;;-147.17;100.00;-15917.19;5032883;28;50960;-47
2023/03/19 03:38:19;;;;;;;;;5.00;4.00;;;;;-147.17;100.00;-15917.19;5029159;28;51290;-47
2023/03/19 03:40:48;;;;;;;;;4.67;4.67;;;;;-147.17;100.00;-15917.19;5027544;28;51407;-47
2023/03/19 03:43:13;;;;;;;;;5.75;5.25;;;;;-147.17;100.00;-15917.19;5030480;28;51311;-46
2023/03/19 03:45:39;;;;;;;;;6.00;6.00;;;;;-147.17;100.00;-15917.19;5029434;28;51175;-47
2023/03/19 03:48:04;;;;;;;;;6.00;5.75;;;;;-147.17;100.00;-15917.19;5029184;28;51135;-47
2023/03/19 03:50:30;;;;;;;;;4.00;4.00;;;;;-147.17;100.00;-15917.19;5026647;28;51180;-47
2023/03/19 03:52:55;;;;;;;;;5.00;4.75;;;;;-147.17;100.00;-15917.19;5030456;28;51842;-47
2023/03/19 03:55:20;;;;;;;;;5.25;5.00;;;;;-147.17;100.00;-15917.19;5028669;28;52363;-48
2023/03/19 03:57:46;;;;;;;;;5.50;5.50;;;;;-147.17;100.00;-15917.19;5030901;28;50976;-47
2023/03/19 04:00:12;;;;;;;;;5.50;5.50;;;;;-147.17;100.00;-15917.19;5032119;28;51318;-46
2023/03/19 04:02:37;;;;;;;;;5.75;5.25;;;;;-147.17;100.00;-15917.19;5033506;28;51052;-46
2023/03/19 04:05:03;;;;;;;;;4.25;4.00;;;;;-147.17;100.00;-15917.19;5029780;28;51551;-46
2023/03/19 04:07:28;;;;;;;;;6.00;5.00;;;;;-147.17;100.00;-15917.19;5027144;28;51184;-47
2023/03/19 04:09:56;;;;;;;;;5.75;5.50;;;;;-147.17;100.00;-15917.19;5032833;28;51455;-47
2023/03/19 04:12:21;;;;;;;;;5.00;4.50;;;;;-147.17;100.00;-15917.19;5032922;28;51366;-47
2023/03/19 04:14:47;;;;;;;;;3.50;3.50;;;;;-147.17;100.00;-15917.19;5033382;28;51918;-47
2023/03/19 04:17:12;;;;;;;;;6.50;4.50;;;;;-147.17;100.00;-15917.19;5012116;28;51236;-49
2023/03/19 04:19:37;;;;;;;;;4.50;4.00;;;;;-147.17;100.00;-15917.19;5032827;28;51336;-50
2023/03/19 04:22:03;;;;;;;;;6.00;5.00;;;;;-147.17;100.00;-15917.19;5030873;28;51291;-47
2023/03/19 04:24:28;;;;;;;;;6.00;6.00;;;;;-147.17;100.00;-15917.19;4995999;28;51288;-47
2023/03/19 04:26:53;;;;;;;;;5.25;5.25;;;;;-147.17;100.00;-15917.19;5030459;28;51239;-47
2023/03/19 04:29:19;;;;;;;;;5.00;5.00;;;;;-147.17;100.00;-15917.19;5032955;28;50995;-48
2023/03/19 04:31:44;;;;;;;;;4.50;4.50;;;;;-147.17;100.00;-15917.19;5029262;28;51127;-48
2023/03/19 04:34:11;;;;;;;;;5.00;5.00;;;;;-147.17;100.00;-15917.19;5006360;28;53027;-48
2023/03/19 04:36:37;;;;;;;;;6.75;6.00;;;;;-147.17;100.00;-15917.19;5028508;28;51138;-48
2023/03/19 04:39:03;;;;;;;;;7.00;6.00;;;;;-147.17;100.00;-15917.19;5031127;28;51383;-50
2023/03/19 04:41:28;;;;;;;;;5.00;5.00;;;;;-147.17;100.00;-15917.19;5012491;28;51344;-48
2023/03/19 04:43:54;;;;;;;;;5.00;5.00;;;;;-147.17;100.00;-15917.19;5026425;28;52188;-47
2023/03/19 04:46:19;;;;;;;;;8.00;6.00;;;;;-147.17;100.00;-15917.19;5029479;28;51323;-46
2023/03/19 04:48:45;;;;;;;;;5.00;5.00;;;;;-147.17;100.00;-15917.19;5031015;28;51095;-47
2023/03/19 04:51:10;;;;;;;;;6.00;5.75;;;;;-147.17;100.00;-15917.19;5013604;28;51209;-48
2023/03/19 04:53:36;;;;;;;;;6.50;6.00;;;;;-147.17;100.00;-15917.19;5027156;28;52172;-50
2023/03/19 04:56:02;;;;;;;;;7.50;7.50;;;;;-147.17;100.00;-15917.19;5028256;28;51389;-48
2023/03/19 04:58:28;;;;;;;;;5.25;5.25;;;;;-147.17;100.00;-15917.19;5024290;28;51323;-49
2023/03/19 05:00:53;;;;;;;;;6.75;6.00;;;;;-147.17;100.00;-15917.19;5030335;28;51474;-47
2023/03/19 05:03:19;;;;;;;;;6.50;6.50;;;;;-147.17;100.00;-15917.19;5027919;28;53055;-50
2023/03/19 05:05:44;;;;;;;;;6.50;6.00;;;;;-147.17;100.00;-15917.19;5034071;28;51236;-50
2023/03/19 05:08:10;;;;;;;;;8.75;7.50;;;;;-147.17;100.00;-15917.19;5033670;28;51772;-47
2023/03/19 05:10:36;;;;;;;;;6.50;6.50;;;;;-147.17;100.00;-15917.19;5031848;28;51075;-48
2023/03/19 05:13:02;;;;;;;;;10.50;9.50;;;;;-147.17;100.00;-15917.19;5029035;28;52118;-48
2023/03/19 05:15:28;;;;;;;;;9.00;7.00;;;;;-147.17;100.00;-15917.19;5029159;28;51175;-49
2023/03/19 05:17:53;;;;;;;;;8.00;8.00;;;;;-147.17;100.00;-15917.19;5025950;28;51082;-50
2023/03/19 05:20:19;;;;;;;;;9.25;9.25;;;;;-147.17;100.00;-15917.19;5028624;28;51265;-46
2023/03/19 05:22:45;;;;;;;;;8.50;8.00;;;;;-147.17;100.00;-15917.19;5030790;28;57042;-46
2023/03/19 05:25:11;;;;;;;;;8.75;8.75;;;;;-147.17;100.00;-15917.19;5020222;28;51268;-47
2023/03/19 05:27:36;;;;;;;;;10.25;9.00;;;;;-147.17;100.00;-15917.19;5019568;28;51160;-46
2023/03/19 05:30:03;;;;;;;;;8.25;8.25;;;;;-147.17;100.00;-15917.19;5029724;28;51298;-48
2023/03/19 05:32:29;;;;;;;;;10.50;8.75;;;;;-147.17;100.00;-15917.19;5028955;28;53351;-49
2023/03/19 05:34:54;;;;;;;;;12.75;12.75;;;;;-147.17;100.00;-15917.19;5028652;28;51157;-48
2023/03/19 05:37:20;;;;;;;;;14.00;9.25;;;;;-147.17;100.00;-15917.19;5033846;28;51024;-51
2023/03/19 05:39:45;;;;;;;;;13.00;12.00;;;;;-147.17;100.00;-15917.19;5029570;28;51341;-51
2023/03/19 05:42:11;;;;;;;;;13.25;12.75;;;;;-147.17;100.00;-15917.19;5030631;28;55300;-51
2023/03/19 05:44:36;;;;;;;;;13.00;12.50;;;;;-147.17;100.00;-15917.19;5034108;28;51153;-48
2023/03/19 05:47:02;;;;;;;;;13.25;11.50;;;;;-147.17;100.00;-15917.19;5032298;28;51181;-51
2023/03/19 05:49:27;;;;;;;;;12.00;11.00;;;;;-147.17;100.00;-15917.19;5022346;28;51156;-51
2023/03/19 05:51:52;;;;;;;;;13.25;12.00;;;;;-147.17;100.00;-15917.19;5029281;28;51076;-49
2023/03/19 05:54:18;;;;;;;;;16.50;13.75;;;;;-147.17;100.00;-15917.19;5034661;28;51121;-48
2023/03/19 05:56:44;;;;;;;;;12.75;11.75;;;;;-147.17;100.00;-15917.19;5033929;28;51216;-51
2023/03/19 05:59:09;;;;;;;;;10.50;10.50;;;;;-147.17;100.00;-15917.19;5032593;28;52790;-48
2023/03/19 06:01:35;;;;;;;;;13.00;12.00;;;;;-147.17;100.00;-15917.19;5023764;28;51149;-51
2023/03/19 06:04:00;;;;;;;;;13.75;12.75;;;;;-147.17;100.00;-15917.19;5030557;28;51085;-49
2023/03/19 06:06:26;;;;;;;;;15.00;12.00;;;;;-147.17;100.00;-15917.19;5033403;28;51099;-48
2023/03/19 06:08:51;;;;;;;;;13.00;12.00;;;;;-147.17;100.00;-15917.19;5009779;28;51329;-49
2023/03/19 06:11:17;;;;;;;;;13.75;11.75;;;;;-147.17;100.00;-15917.19;5037494;28;51313;-50
2023/03/19 06:13:42;;;;;;;;;13.00;12.50;;;;;-147.17;100.00;-15917.19;5034771;28;51209;-48
2023/03/19 06:16:08;;;;;;;;;12.00;10.75;;;;;-147.17;100.00;-15917.19;5030004;28;51141;-47
2023/03/19 06:18:33;;;;;;;;;13.25;12.25;;;;;-147.17;100.00;-15917.19;5025222;28;51170;-52
2023/03/19 06:20:59;;;;;;;;;13.25;13.00;;;;;-147.17;100.00;-15917.19;5030693;28;51381;-49
2023/03/19 06:23:25;;;;;;;;;12.00;12.00;;;;;-147.17;100.00;-15917.19;5032290;28;51074;-49
2023/03/19 06:25:50;;;;;;;;;17.00;15.25;;;;;-147.17;100.00;-15917.19;5029132;28;51451;-47
2023/03/19 06:28:15;;;;;;;;;11.25;10.75;;;;;-147.17;100.00;-15917.19;5030577;28;51205;-47
2023/03/19 06:30:41;;;;;;;;;9.00;9.00;;;;;-147.17;100.00;-15917.19;5028079;28;51664;-47
2023/03/19 06:33:07;;;;;;;;;14.25;12.25;;;;;-147.17;100.00;-15917.19;5025168;28;51604;-46
2023/03/19 06:35:32;;;;;;;;;11.50;11.25;;;;;-147.17;100.00;-15917.19;5033104;28;51102;-48
2023/03/19 06:37:58;;;;;;;;;11.25;10.75;;;;;-147.17;100.00;-15917.19;5029261;28;51331;-50
2023/03/19 06:40:23;;;;;;;;;9.75;9.00;;;;;-147.17;100.00;-15917.19;5029868;28;52285;-50
2023/03/19 06:42:48;;;;;;;;;11.00;11.00;;;;;-147.17;100.00;-15917.19;5033063;28;50996;-47
2023/03/19 06:45:17;;;;;;;;;12.75;11.50;;;;;-147.17;100.00;-15917.19;5026998;28;51613;-48
2023/03/19 06:47:42;;;;;;;;;13.50;11.25;;;;;-147.17;100.00;-15917.19;5003450;28;51387;-48
2023/03/19 06:50:10;;;;;;;;;11.50;11.50;;;;;-147.17;100.00;-15917.19;5032680;28;51837;-47
2023/03/19 06:52:35;;;;;;;;;12.25;10.50;;;;;-147.17;100.00;-15917.19;5033197;28;51047;-47
2023/03/19 06:55:01;;;;;;;;;14.00;10.25;;;;;-147.17;100.00;-15917.19;5031901;28;51179;-48
2023/03/19 06:57:26;;;;;;;;;14.25;13.00;;;;;-147.17;100.00;-15917.19;5032252;28;51427;-48
2023/03/19 06:59:52;;;;;;;;;12.75;12.75;;;;;-147.17;100.00;-15917.19;5033535;28;51089;-51
2023/03/19 07:02:17;;;;;;;;;12.00;8.75;;;;;-147.17;100.00;-15917.19;5028602;28;51322;-50
2023/03/19 07:04:42;;;;;;;;;13.25;13.25;;;;;-147.17;100.00;-15917.19;5032420;28;51505;-47
2023/03/19 07:07:08;;;;;;;;;13.50;12.50;;;;;-147.17;100.00;-15917.19;5032300;28;51214;-47
2023/03/19 07:09:33;;;;;;;;;12.50;12.50;;;;;-147.17;100.00;-15917.19;5011288;28;52262;-46
2023/03/19 07:11:58;;;;;;;;;10.00;8.75;;;;;-147.17;100.00;-15917.19;5035475;28;51216;-48
2023/03/19 07:14:24;;;;;;;;;12.50;11.75;;;;;-147.17;100.00;-15917.19;5026253;28;51301;-49
2023/03/19 07:16:50;;;;;;;;;10.50;9.50;;;;;-147.17;100.00;-15917.19;5010880;28;51243;-49
2023/03/19 07:19:15;;;;;;;;;13.00;11.50;;;;;-147.17;100.00;-15917.19;5012330;28;51366;-50
2023/03/19 07:21:41;;;;;;;;;14.00;13.25;;;;;-147.17;100.00;-15917.19;5015806;28;52435;-49
2023/03/19 07:24:06;;;;;;;;;13.00;12.50;;;;;-147.17;100.00;-15917.19;5029769;28;51256;-50
2023/03/19 07:26:32;;;;;;;;;9.50;8.50;;;;;-147.17;100.00;-15917.19;5020794;28;51307;-49
2023/03/19 07:28:57;;;;;;;;;8.75;8.00;;;;;-147.17;100.00;-15917.19;5027908;28;51819;-48
2023/03/19 07:31:23;;;;;;;;;9.00;8.25;;;;;-147.17;100.00;-15917.19;5029824;28;51157;-49
2023/03/19 07:33:48;;;;;;;;;12.75;11.25;;;;;-147.17;100.00;-15917.19;5029448;28;51067;-49
2023/03/19 07:36:13;;;;;;;;;15.25;15.25;;;;;-147.17;100.00;-15917.19;5029160;28;51335;-45
2023/03/19 07:38:39;;;;;;;;;10.25;9.00;;;;;-147.17;100.00;-15917.19;5029480;28;51228;-50
2023/03/19 07:41:04;;;;;;;;;14.00;13.00;;;;;-147.17;100.00;-15917.19;5028859;28;51310;-49
2023/03/19 07:43:30;;;;;;;;;10.00;9.25;;;;;-147.17;100.00;-15917.19;5032131;28;51395;-51
2023/03/19 07:45:55;;;;;;;;;8.00;7.75;;;;;-147.17;100.00;-15917.19;5020731;28;51232;-48
2023/03/19 07:48:21;;;;;;;;;8.50;8.25;;;;;-147.17;100.00;-15917.19;5026915;28;51181;-46
2023/03/19 07:50:49;;;;;;;;;9.50;9.00;;;;;-147.17;100.00;-15917.19;5027393;28;51363;-50
2023/03/19 07:53:15;;;;;;;;;9.50;9.50;;;;;-147.17;100.00;-15917.19;5028964;28;51390;-49
2023/03/19 07:55:40;;;;;;;;;9.25;9.00;;;;;-147.17;100.00;-15917.19;5024185;28;51636;-48
2023/03/19 07:58:06;;;;;;;;;9.25;9.00;;;;;-147.17;100.00;-15917.19;5030476;28;51160;-51
2023/03/19 08:00:31;;;;;;;;;10.00;10.00;;;;;-147.17;100.00;-15917.19;5031055;28;51102;-48
2023/03/19 08:02:57;;;;;;;;;10.00;8.50;;;;;-147.17;100.00;-15917.19;5031802;28;51174;-48
2023/03/19 08:05:22;;;;;;;;;11.50;11.00;;;;;-147.17;100.00;-15917.19;5029182;28;51130;-48
2023/03/19 08:07:49;;;;;;;;;10.50;10.50;;;;;-147.17;100.00;-15917.19;5030611;28;52270;-48
2023/03/19 08:10:15;;;;;;;;;9.00;9.00;;;;;-147.17;100.00;-15917.19;5030752;28;51102;-48
2023/03/19 08:12:40;;;;;;;;;8.00;8.00;;;;;-147.17;100.00;-15917.19;5022808;28;51150;-47
2023/03/19 08:15:08;;;;;;;;;7.00;7.00;;;;;-147.17;100.00;-15917.19;5031599;28;51811;-48
2023/03/19 08:17:36;;;;;;;;;5.00;4.67;;;;;-147.17;100.00;-15917.19;5031503;28;51176;-48
2023/03/19 08:20:04;;;;;;;;;5.67;5.67;;;;;-147.17;100.00;-15917.19;5031784;28;51492;-49
2023/03/19 08:22:30;;;;;;;;;7.00;7.00;;;;;-147.17;100.00;-15917.19;5023525;28;51272;-47
2023/03/19 08:24:55;;;;;;;;;6.00;6.00;;;;;-147.17;100.00;-15917.19;5030868;28;51288;-49
2023/03/19 08:27:20;;;;;;;;;6.00;6.00;;;;;-147.17;100.00;-15917.19;5028154;28;58903;-48
2023/03/19 08:29:46;;;;;;;;;11.00;10.00;;;;;-147.17;100.00;-15917.19;5026574;28;51141;-50
2023/03/19 08:32:11;;;;;;;;;8.00;5.67;;;;;-147.17;100.00;-15917.19;5029099;28;51126;-49
2023/03/19 08:34:37;;;;;;;;;6.33;6.00;;;;;-147.17;100.00;-15917.19;5030264;28;51014;-49
2023/03/19 08:37:02;;;;;;;;;5.33;5.33;;;;;-147.17;100.00;-15917.19;5025707;28;52243;-49
2023/03/19 08:39:28;;;;;;;;;6.00;5.33;;;;;-147.17;100.00;-15917.19;5027282;28;51311;-48
2023/03/19 08:41:53;;;;;;;;;7.67;6.00;;;;;-147.17;100.00;-15917.19;5026659;28;51054;-49
2023/03/19 08:44:19;;;;;;;;;7.00;6.33;;;;;-147.17;100.00;-15917.19;5010148;28;51321;-49
2023/03/19 08:46:44;;;;;;;;;4.00;4.00;;;;;-147.17;100.00;-15917.19;5026349;28;51208;-47
2023/03/19 08:49:09;;;;;;;;;5.00;4.00;;;;;-147.17;100.00;-15917.19;5024865;28;51250;-49
2023/03/19 08:51:35;;;;;;;;;4.67;4.00;;;;;-147.17;100.00;-15917.19;5030980;28;51163;-49
2023/03/19 08:54:01;;;;;;;;;6.00;5.67;;;;;-147.17;100.00;-15917.19;5028771;28;51124;-46
2023/03/19 08:56:26;;;;;;;;;7.00;7.00;;;;;-147.17;100.00;-15917.19;5025090;28;52160;-46
2023/03/19 08:58:51;;;;;;;;;5.00;5.00;;;;;-147.17;100.00;-15917.19;5012012;28;51173;-46
2023/03/19 09:01:17;;;;;;;;;5.67;5.67;;;;;-147.17;100.00;-15917.19;5025396;28;51155;-48
2023/03/19 09:03:44;;;;;;;;;6.67;6.67;;;;;-147.17;100.00;-15917.19;5030384;28;51419;-47
2023/03/19 09:06:11;;;;;;;;;7.00;6.67;;;;;-147.17;100.00;-15917.19;5028886;28;52124;-47
2023/03/19 09:08:37;;;;;;;;;8.00;7.33;;;;;-147.17;100.00;-15917.19;5029041;28;51128;-46
2023/03/19 09:11:04;;;;;;;;;9.67;9.00;;;;;-147.17;100.00;-15917.19;5011602;28;52578;-49
2023/03/19 09:13:29;;;;;;;;;8.67;8.00;;;;;-147.17;100.00;-15917.19;5029519;28;51029;-46
2023/03/19 09:15:55;;;;;;;;;8.00;8.00;;;;;-147.17;100.00;-15917.19;5030270;28;51152;-46
2023/03/19 09:18:22;;;;;;;;;6.33;6.33;;;;;-147.17;100.00;-15917.19;5031100;28;51037;-47
2023/03/19 09:20:49;;;;;;;;;6.00;6.00;;;;;-147.17;100.00;-15917.19;5030644;28;50944;-47
2023/03/19 09:23:14;;;;;;;;;6.00;6.00;;;;;-147.17;100.00;-15917.19;5026009;28;51099;-47
2023/03/19 09:25:40;;;;;;;;;6.00;5.33;;;;;-147.17;100.00;-15917.19;5022011;28;52232;-48
2023/03/19 09:28:05;;;;;;;;;7.00;7.00;;;;;-147.17;100.00;-15917.19;5030975;28;51280;-46
2023/03/19 09:30:31;;;;;;;;;7.00;6.00;;;;;-147.17;100.00;-15917.19;5025134;28;51229;-48
2023/03/19 09:32:56;;;;;;;;;6.33;5.00;;;;;-147.17;100.00;-15917.19;5029431;28;51134;-46
2023/03/19 09:35:22;;;;;;;;;3.00;3.00;;;;;-147.17;100.00;-15917.19;5008338;28;53067;-46
2023/03/19 09:37:47;;;;;;;;;5.00;5.00;;;;;-147.17;100.00;-15917.19;5029956;28;51160;-47
2023/03/19 09:40:23;;;;;;;;;5.67;5.33;;;;;-147.17;100.00;-15917.19;5029510;28;52697;-46
2023/03/19 09:43:05;;;;;;;;;6.00;6.00;;;;;-147.17;100.00;-15917.19;5026689;28;51293;-46
2023/03/19 09:45:31;;;;;;;;;6.00;5.00;;;;;-147.17;100.00;-15917.19;5029198;28;51091;-47
2023/03/19 09:48:03;;;;;;;;;7.67;5.67;;;;;-147.17;100.00;-15917.19;5030374;28;51230;-46
2023/03/19 09:50:33;;;;;;;;;4.33;4.00;;;;;-147.17;100.00;-15917.19;5023752;28;51240;-46
2023/03/19 09:53:13;;;;;;;;;4.67;4.67;;;;;-147.17;100.00;-15917.19;5025688;28;51062;-47
2023/03/19 09:55:46;;;;;;;;;6.00;6.00;;;;;-147.17;100.00;-15917.19;5010093;28;52279;-50
2023/03/19 09:58:21;;;;;;;;;8.67;7.00;;;;;-147.17;100.00;-15917.19;5026101;28;51154;-47
2023/03/19 10:00:52;;;;;;;;;6.67;6.67;;;;;-147.17;100.00;-15917.19;5027007;28;51106;-48
2023/03/19 10:03:59;;;;;;;;;7.33;6.33;;;;;-147.17;100.00;-15917.19;5029436;28;51454;-48
2023/03/19 10:06:32;;;;;;;;;4.00;4.00;;;;;-147.17;100.00;-15917.19;5025641;28;51179;-47
2023/03/19 10:09:13;;;;;;;;;4.00;4.00;;;;;-147.17;100.00;-15917.19;5028542;28;51273;-46
2023/03/19 10:12:00;;;;;;;;;5.33;5.00;;;;;-147.17;100.00;-15917.19;5023302;28;51584;-46
2023/03/19 10:15:04;;;;;;;;;7.33;7.00;;;;;-147.17;100.00;-15917.19;5022687;28;51480;-46
2023/03/19 10:17:55;;;;;;;;;4.00;4.00;;;;;-147.17;100.00;-15917.19;4997409;28;51765;-46
2023/03/19 10:20:39;;;;;;;;;7.00;6.67;;;;;-147.17;100.00;-15917.19;5026577;28;53980;-48
2023/03/19 10:23:27;;;;;;;;;7.00;6.33;;;;;-147.17;100.00;-15917.19;4991807;28;51258;-52
2023/03/19 10:25:57;;;;;;;;;5.00;5.00;;;;;-147.17;100.00;-15917.19;5031250;28;51240;-46
2023/03/19 10:28:25;;;;;;;;;4.67;4.00;;;;;-147.17;100.00;-15917.19;5029816;28;51117;-48
2023/03/19 10:31:01;;;;;;;;;6.67;6.00;;;;;-147.17;100.00;-15917.19;5029839;28;51236;-46
2023/03/19 10:33:41;;;;;;;;;6.00;6.00;;;;;-147.17;100.00;-15917.19;5029282;28;51411;-46
2023/03/19 10:36:09;;;;;;;;;9.67;8.67;;;;;-147.17;100.00;-15917.19;5032650;28;51058;-46
2023/03/19 10:38:40;;;;;;;;;6.00;6.00;;;;;-147.17;100.00;-15917.19;5012699;28;51557;-45
2023/03/19 10:41:21;;;;;;;;;9.00;8.00;;;;;-147.17;100.00;-15917.19;5024350;28;51291;-45
2023/03/19 10:43:55;;;;;;;;;6.00;6.00;;;;;-147.17;100.00;-15917.19;5018729;28;51557;-45
2023/03/19 10:46:21;;;;;;;;;8.00;8.00;;;;;-147.17;100.00;-15917.19;5024512;28;51336;-46
2023/03/19 10:48:48;;;;;;;;;6.33;6.00;;;;;-147.17;100.00;-15917.19;5035372;28;51825;-48
2023/03/19 10:51:16;;;;;;;;;9.00;7.75;;;;;-147.17;100.00;-15917.19;5022769;28;51299;-46
2023/03/19 10:53:41;;;;;;;;;10.00;10.00;;;;;-147.17;100.00;-15917.19;5025929;28;51349;-47
2023/03/19 10:56:17;;;;;;;;;12.00;10.50;;;;;-147.17;100.00;-15917.19;5012163;28;51694;-46
2023/03/19 10:59:02;;;;;;;;;9.50;9.50;;;;;-147.17;100.00;-15917.19;5018897;28;52611;-46